createdAt,value
2022-09-01T00:00:29.984Z,102351.78
2022-09-01T00:02:58.223Z,102353.53
2022-09-01T00:05:26.855Z,102357.00
2022-09-01T00:07:54.931Z,102356.97
2022-09-01T00:10:23.209Z,102356.97
2022-09-01T00:12:51.288Z,102355.19
2022-09-01T00:15:20.826Z,102357.84
2022-09-01T00:17:49.014Z,102361.34
2022-09-01T00:20:20.270Z,102359.56
2022-09-01T00:22:49.178Z,102357.78
2022-09-01T00:25:20.155Z,102357.75
2022-09-01T00:27:49.260Z,102354.25
2022-09-01T00:30:17.805Z,102360.38
2022-09-01T00:32:47.904Z,102358.63
2022-09-01T00:35:17.662Z,102358.63
2022-09-01T00:37:46.083Z,102367.34
2022-09-01T00:40:16.803Z,102360.31
2022-09-01T00:42:45.866Z,102360.28
2022-09-01T00:45:14.473Z,102360.28
2022-09-01T00:47:42.905Z,102368.19
2022-09-01T00:50:16.808Z,102355.84
2022-09-01T00:52:49.397Z,102362.88
2022-09-01T00:55:23.842Z,102357.59
2022-09-01T00:57:52.264Z,102351.41
2022-09-01T01:00:25.130Z,102356.66
2022-09-01T01:02:56.098Z,102351.34
2022-09-01T01:05:28.808Z,102351.34
2022-09-01T01:07:59.197Z,102352.19
2022-09-01T01:10:27.429Z,102348.66
2022-09-01T01:12:56.184Z,102350.41
2022-09-01T01:15:24.416Z,102338.97
2022-09-01T01:17:52.525Z,102338.09
2022-09-01T01:20:41.133Z,102335.47
2022-09-01T01:23:19.602Z,102339.81
2022-09-01T01:25:53.322Z,102338.94
2022-09-01T01:28:26.853Z,102338.91
2022-09-01T01:31:01.547Z,102337.13
2022-09-01T01:33:37.125Z,102340.63
2022-09-01T01:36:07.878Z,102337.97
2022-09-01T01:38:36.673Z,102338.81
2022-09-01T01:41:06.642Z,102331.78
2022-09-01T01:43:34.728Z,102338.78
2022-09-01T01:46:05.368Z,102340.56
2022-09-01T01:48:34.846Z,102344.06
2022-09-01T01:51:04.873Z,102350.19
2022-09-01T01:53:34.608Z,102346.66
2022-09-01T01:56:02.836Z,102342.25
2022-09-01T01:58:32.695Z,102345.78
2022-09-01T02:01:00.988Z,102344.91
2022-09-01T02:03:36.355Z,102345.84
2022-09-01T02:06:07.020Z,102339.69
2022-09-01T02:08:37.721Z,102340.59
2022-09-01T02:11:07.751Z,102346.78
2022-09-01T02:13:37.437Z,102344.19
2022-09-01T02:16:12.989Z,102343.31
2022-09-01T02:18:48.149Z,102346.88
2022-09-01T02:21:20.483Z,102344.22
2022-09-01T02:23:50.807Z,102347.75
2022-09-01T02:26:22.686Z,102345.13
2022-09-01T02:28:55.364Z,102344.25
2022-09-01T02:31:25.181Z,102335.47
2022-09-01T02:33:54.657Z,102341.63
2022-09-01T02:36:25.250Z,102344.28
2022-09-01T02:38:55.345Z,102338.16
2022-09-01T02:41:29.020Z,102340.78
2022-09-01T02:44:02.161Z,102332.91
2022-09-01T02:46:30.913Z,102340.84
2022-09-01T02:49:00.603Z,102339.09
2022-09-01T02:51:29.028Z,102336.47
2022-09-01T02:53:57.707Z,102339.97
2022-09-01T02:56:27.706Z,102332.91
2022-09-01T02:58:56.422Z,102335.53
2022-09-01T03:01:30.516Z,102342.56
2022-09-01T03:04:02.138Z,102335.50
2022-09-01T03:06:34.063Z,102331.97
2022-09-01T03:09:03.279Z,102338.97
2022-09-01T03:11:34.925Z,102347.75
2022-09-01T03:14:03.262Z,102347.75
2022-09-01T03:16:33.677Z,102335.38
2022-09-01T03:19:03.305Z,102338.88
2022-09-01T03:21:32.128Z,102345.91
2022-09-01T03:24:02.036Z,102337.06
2022-09-01T03:26:31.083Z,102344.06
2022-09-01T03:29:00.160Z,102340.53
2022-09-01T03:31:29.931Z,102340.53
2022-09-01T03:34:01.598Z,102330.81
2022-09-01T03:36:30.953Z,102330.78
2022-09-01T03:38:59.285Z,102335.19
2022-09-01T03:41:30.245Z,102323.69
2022-09-01T03:43:59.426Z,102328.03
2022-09-01T03:46:34.276Z,102322.72
2022-09-01T03:49:08.026Z,102326.19
2022-09-01T03:51:38.906Z,102328.78
2022-09-01T03:54:07.503Z,102322.59
2022-09-01T03:56:36.516Z,102321.69
2022-09-01T03:59:05.138Z,102325.16
2022-09-01T04:01:41.555Z,102320.75
2022-09-01T04:04:13.789Z,102326.03
2022-09-01T04:06:43.409Z,102326.03
2022-09-01T04:09:11.690Z,102325.16
2022-09-01T04:11:45.876Z,102326.91
2022-09-01T04:14:15.061Z,102325.97
2022-09-01T04:17:02.016Z,102325.94
2022-09-01T04:19:36.718Z,102322.34
2022-09-01T04:22:05.753Z,102324.97
2022-09-01T04:24:34.890Z,102317.00
2022-09-01T04:27:04.380Z,102315.22
2022-09-01T04:29:33.580Z,102326.63
2022-09-01T04:32:05.658Z,102326.59
2022-09-01T04:34:39.902Z,102323.09
2022-09-01T04:37:14.888Z,102327.47
2022-09-01T04:39:51.423Z,102323.94
2022-09-01T04:42:24.004Z,102321.34
2022-09-01T04:44:53.596Z,102323.19
2022-09-01T04:47:29.960Z,102321.47
2022-09-01T04:50:14.033Z,102322.38
2022-09-01T04:52:43.004Z,102327.66
2022-09-01T04:55:17.372Z,102315.34
2022-09-01T04:57:49.370Z,102320.69
2022-09-01T05:00:23.391Z,102317.16
2022-09-01T05:02:53.312Z,102324.25
2022-09-01T05:05:24.431Z,102320.75
2022-09-01T05:07:53.095Z,102324.31
2022-09-01T05:10:23.359Z,102319.94
2022-09-01T05:12:52.347Z,102322.59
2022-09-01T05:15:21.029Z,102325.22
2022-09-01T05:17:49.342Z,102324.31
2022-09-01T05:20:17.500Z,102317.31
2022-09-01T05:22:47.002Z,102319.13
2022-09-01T05:25:15.156Z,102318.34
2022-09-01T05:27:49.498Z,102321.91
2022-09-01T05:30:19.057Z,102324.66
2022-09-01T05:32:49.162Z,102317.63
2022-09-01T05:35:17.558Z,102327.34
2022-09-01T05:37:47.312Z,102326.47
2022-09-01T05:40:16.086Z,102327.38
2022-09-01T05:42:44.942Z,102333.59
2022-09-01T05:45:14.266Z,102330.97
2022-09-01T05:47:42.400Z,102330.09
2022-09-01T05:50:14.608Z,102327.53
2022-09-01T05:52:44.819Z,102324.06
2022-09-01T05:55:15.202Z,102331.19
2022-09-01T05:57:48.006Z,102325.13
2022-09-01T06:00:18.177Z,102325.22
2022-09-01T06:02:47.082Z,102330.56
2022-09-01T06:05:15.801Z,102330.56
2022-09-01T06:07:44.334Z,102335.88
2022-09-01T06:10:14.824Z,102339.41
2022-09-01T06:12:45.244Z,102335.03
2022-09-01T06:15:18.491Z,102333.28
2022-09-01T06:17:47.124Z,102333.28
2022-09-01T06:20:18.234Z,102333.31
2022-09-01T06:22:48.112Z,102329.78
2022-09-01T06:25:18.517Z,102338.66
2022-09-01T06:27:48.803Z,102332.50
2022-09-01T06:30:23.908Z,102337.81
2022-09-01T06:32:53.738Z,102334.31
2022-09-01T06:35:25.132Z,102337.91
2022-09-01T06:37:53.458Z,102338.78
2022-09-01T06:40:25.531Z,102343.19
2022-09-01T06:42:54.344Z,102349.38
2022-09-01T06:45:26.119Z,102345.84
2022-09-01T06:47:57.722Z,102352.91
2022-09-01T06:53:35.144Z,102359.94
2022-09-01T06:56:05.180Z,102358.09
2022-09-01T06:58:33.596Z,102355.41
2022-09-01T07:01:08.256Z,102363.28
2022-09-01T07:03:39.302Z,102363.22
2022-09-01T07:06:09.883Z,102365.84
2022-09-01T07:14:25.050Z,102371.19
2022-09-01T07:17:22.374Z,102374.72
2022-09-01T07:19:49.118Z,102378.19
2022-09-01T07:25:11.978Z,102365.59
2022-09-01T07:28:01.578Z,102370.88
2022-09-01T07:30:31.956Z,102362.78
2022-09-01T07:33:41.687Z,102374.22
2022-09-01T07:44:18.156Z,102375.47
2022-09-01T07:47:19.442Z,102366.53
2022-09-01T07:50:11.380Z,102370.91
2022-09-01T07:52:26.073Z,102374.41
2022-09-01T07:54:54.584Z,102361.84
2022-09-01T07:57:22.975Z,102369.72
2022-09-01T07:59:55.501Z,102366.13
2022-09-01T08:02:24.615Z,102364.22
2022-09-01T08:04:52.723Z,102365.00
2022-09-01T08:07:21.294Z,102362.22
2022-09-01T08:09:49.416Z,102365.66
2022-09-01T08:12:17.854Z,102364.72
2022-09-01T08:14:46.707Z,102365.50
2022-09-01T08:17:17.689Z,102366.22
2022-09-01T08:20:02.052Z,102361.66
2022-09-01T08:22:30.347Z,102363.28
2022-09-01T08:25:02.394Z,102359.59
2022-09-01T08:27:30.521Z,102371.88
2022-09-01T08:29:58.564Z,102376.22
2022-09-01T08:32:28.121Z,102369.84
2022-09-01T08:34:57.062Z,102370.56
2022-09-01T08:37:25.697Z,102364.28
2022-09-01T08:39:54.064Z,102366.69
2022-09-01T08:42:38.942Z,102368.31
2022-09-01T08:45:17.234Z,102365.47
2022-09-01T08:48:20.287Z,102369.72
2022-09-01T08:50:37.742Z,102361.53
2022-09-01T08:53:12.156Z,102357.84
2022-09-01T08:55:45.383Z,102357.63
2022-09-01T08:58:18.133Z,102361.00
2022-09-01T09:00:55.814Z,102362.53
2022-09-01T09:03:40.976Z,102357.00
2022-09-01T09:06:20.994Z,102367.50
2022-09-01T09:08:59.410Z,102354.81
2022-09-01T09:12:08.584Z,102356.41
2022-09-01T09:14:54.317Z,102356.16
2022-09-01T09:17:30.750Z,102348.69
2022-09-01T09:20:03.295Z,102355.47
2022-09-01T09:22:31.976Z,102351.63
2022-09-01T09:25:09.181Z,102346.03
2022-09-01T09:27:40.248Z,102342.09
2022-09-01T09:30:13.531Z,102343.66
2022-09-01T09:35:43.761Z,102339.59
2022-09-01T09:38:28.585Z,102343.84
2022-09-01T09:41:20.330Z,102334.75
2022-09-01T09:43:59.211Z,102338.16
2022-09-01T09:46:35.980Z,102328.13
2022-09-01T09:49:19.362Z,102328.66
2022-09-01T09:51:58.816Z,102331.91
2022-09-01T09:54:29.514Z,102324.63
2022-09-01T09:57:14.392Z,102324.66
2022-09-01T09:59:58.747Z,102324.47
2022-09-01T10:02:33.718Z,102326.81
2022-09-01T10:05:24.662Z,102322.06
2022-09-01T10:07:55.063Z,102321.78
2022-09-01T10:10:33.030Z,102320.78
2022-09-01T10:13:02.459Z,102310.44
2022-09-01T10:15:34.497Z,102315.97
2022-09-01T10:21:02.770Z,102314.00
2022-09-01T10:23:37.737Z,102309.81
2022-09-01T10:26:13.156Z,102307.44
2022-09-01T10:28:56.015Z,102303.41
2022-09-01T10:31:29.569Z,102290.16
2022-09-01T10:34:05.649Z,102294.34
2022-09-01T10:36:35.452Z,102298.22
2022-09-01T10:39:09.029Z,102292.25
2022-09-01T10:42:00.237Z,102287.63
2022-09-01T10:44:34.142Z,102295.53
2022-09-01T10:47:06.177Z,102284.19
2022-09-01T10:50:07.905Z,102290.22
2022-09-01T10:53:06.880Z,102283.22
2022-09-01T10:56:28.182Z,102292.38
2022-09-01T11:02:26.721Z,102272.28
2022-09-01T11:05:20.091Z,102277.69
2022-09-01T11:08:15.180Z,102277.84
2022-09-01T11:10:49.364Z,102273.53
2022-09-01T11:13:35.041Z,102266.06
2022-09-01T11:19:37.645Z,102263.13
2022-09-01T11:22:27.397Z,102264.41
2022-09-01T11:25:43.708Z,102264.00
2022-09-01T11:28:46.330Z,102262.47
2022-09-01T11:31:30.364Z,102252.50
2022-09-01T11:34:11.095Z,102253.94
2022-09-01T11:36:52.735Z,102252.94
2022-09-01T11:39:34.151Z,102255.50
2022-09-01T11:42:09.196Z,102245.81
2022-09-01T11:44:48.006Z,102255.00
2022-09-01T11:47:21.285Z,102252.59
2022-09-01T11:49:56.375Z,102243.63
2022-09-01T11:52:28.211Z,102238.00
2022-09-01T11:54:56.570Z,102248.66
2022-09-01T11:57:31.990Z,102256.34
2022-09-01T12:00:05.846Z,102235.50
2022-09-01T12:02:38.383Z,102230.75
2022-09-01T12:05:29.752Z,102235.22
2022-09-01T12:07:59.153Z,102233.41
2022-09-01T12:10:34.435Z,102229.66
2022-09-01T12:13:05.918Z,102232.44
2022-09-01T12:15:46.432Z,102225.13
2022-09-01T12:18:27.860Z,102235.78
2022-09-01T12:20:58.760Z,102224.66
2022-09-01T12:23:29.787Z,102229.59
2022-09-01T12:26:09.699Z,102228.75
2022-09-01T12:28:41.785Z,102221.00
2022-09-01T12:31:16.959Z,102222.16
2022-09-01T12:33:45.860Z,102215.63
2022-09-01T12:36:24.727Z,102220.25
2022-09-01T12:38:54.515Z,102219.06
2022-09-01T12:41:36.705Z,102221.66
2022-09-01T12:44:31.110Z,102205.22
2022-09-01T12:47:04.985Z,102214.22
2022-09-01T12:49:45.234Z,102209.88
2022-09-01T12:52:26.530Z,102200.38
2022-09-01T12:55:47.367Z,102210.59
2022-09-01T12:58:06.779Z,102210.84
2022-09-01T13:00:37.546Z,102207.28
2022-09-01T13:03:14.112Z,102207.13
2022-09-01T13:05:44.003Z,102214.50
2022-09-01T13:08:15.871Z,102207.72
2022-09-01T13:10:46.831Z,102196.97
2022-09-01T13:13:16.426Z,102197.91
2022-09-01T13:15:48.155Z,102197.50
2022-09-01T13:18:19.916Z,102194.72
2022-09-01T13:20:48.716Z,102187.34
2022-09-01T13:23:17.715Z,102186.09
2022-09-01T13:25:46.905Z,102176.28
2022-09-01T13:28:16.329Z,102171.16
2022-09-01T13:30:47.671Z,102179.22
2022-09-01T13:33:19.594Z,102177.66
2022-09-01T13:35:49.127Z,102171.88
2022-09-01T13:38:18.035Z,102162.81
2022-09-01T13:40:48.379Z,102154.75
2022-09-01T13:43:19.577Z,102158.66
2022-09-01T13:45:48.771Z,102156.72
2022-09-01T13:48:19.128Z,102157.25
2022-09-01T13:53:38.609Z,102153.41
2022-09-01T13:56:07.866Z,102143.63
2022-09-01T13:58:37.029Z,102145.38
2022-09-01T14:01:05.530Z,102141.41
2022-09-01T14:03:35.083Z,102143.31
2022-09-01T14:06:03.279Z,102134.50
2022-09-01T14:08:33.248Z,102132.16
2022-09-01T14:11:01.871Z,102132.50
2022-09-01T14:13:31.222Z,102141.94
2022-09-01T14:16:00.096Z,102138.47
2022-09-01T14:18:32.898Z,102131.34
2022-09-01T14:21:02.459Z,102119.75
2022-09-01T14:23:30.965Z,102116.72
2022-09-01T14:25:59.783Z,102114.09
2022-09-01T14:28:27.874Z,102125.09
2022-09-01T14:33:27.514Z,102125.53
2022-09-01T14:35:55.694Z,102122.72
2022-09-01T14:38:25.154Z,102115.56
2022-09-01T14:40:53.456Z,102110.47
2022-09-01T14:43:22.050Z,102114.56
2022-09-01T14:45:51.873Z,102111.44
2022-09-01T14:48:20.637Z,102114.81
2022-09-01T14:50:50.975Z,102110.34
2022-09-01T14:53:19.968Z,102103.97
2022-09-01T14:55:51.508Z,102102.75
2022-09-01T14:58:23.504Z,102110.38
2022-09-01T15:00:51.723Z,102105.97
2022-09-01T15:03:22.839Z,102100.03
2022-09-01T15:05:51.190Z,102100.91
2022-09-01T15:08:19.533Z,102096.16
2022-09-01T15:10:50.606Z,102093.72
2022-09-01T15:13:19.013Z,102089.31
2022-09-01T15:15:47.247Z,102088.47
2022-09-01T15:18:15.363Z,102079.81
2022-09-01T15:20:47.055Z,102075.72
2022-09-01T15:23:19.646Z,102071.78
2022-09-01T15:25:52.418Z,102066.66
2022-09-01T15:28:20.975Z,102062.91
2022-09-01T15:30:49.807Z,102069.16
2022-09-01T15:33:19.331Z,102067.44
2022-09-01T15:35:48.101Z,102061.75
2022-09-01T15:38:19.555Z,102057.09
2022-09-01T15:40:57.228Z,102056.66
2022-09-01T15:43:27.895Z,102046.94
2022-09-01T15:45:58.286Z,102054.88
2022-09-01T15:48:27.844Z,102052.75
2022-09-01T15:51:16.078Z,102061.63
2022-09-01T15:53:44.337Z,102054.19
2022-09-01T15:56:14.341Z,102047.94
2022-09-01T15:59:00.377Z,102045.34
2022-09-01T16:01:32.161Z,102041.41
2022-09-01T16:04:01.222Z,102046.47
2022-09-01T16:06:30.275Z,102035.69
2022-09-01T16:08:59.021Z,102041.88
2022-09-01T16:11:29.197Z,102038.97
2022-09-01T16:13:58.604Z,102032.66
2022-09-01T16:16:51.858Z,102038.38
2022-09-01T16:19:33.174Z,102028.09
2022-09-01T16:22:12.974Z,102026.81
2022-09-01T16:24:44.897Z,102034.56
2022-09-01T16:27:18.198Z,102026.31
2022-09-01T16:29:51.724Z,102028.19
2022-09-01T16:32:23.124Z,102027.50
2022-09-01T16:34:53.279Z,102027.16
2022-09-01T16:37:40.618Z,102024.75
2022-09-01T16:40:22.944Z,102019.28
2022-09-01T16:43:00.893Z,102018.41
2022-09-01T16:45:44.982Z,102023.03
2022-09-01T16:48:20.530Z,102016.84
2022-09-01T16:50:58.483Z,102017.47
2022-09-01T16:53:48.406Z,102014.69
2022-09-01T16:56:26.827Z,102013.28
2022-09-01T16:59:12.044Z,102019.50
2022-09-01T17:01:49.565Z,102016.78
2022-09-01T17:04:29.547Z,102014.44
2022-09-01T17:07:05.876Z,102012.16
2022-09-01T17:09:40.940Z,102021.88
2022-09-01T17:12:27.527Z,102010.13
2022-09-01T17:15:00.356Z,102009.88
2022-09-01T17:17:39.686Z,102012.75
2022-09-01T17:20:09.421Z,102016.59
2022-09-01T17:22:39.019Z,102014.00
2022-09-01T17:25:13.783Z,102018.09
2022-09-01T17:27:52.990Z,102013.50
2022-09-01T17:30:22.707Z,102020.56
2022-09-01T17:33:12.107Z,102012.66
2022-09-01T17:36:02.154Z,102020.97
2022-09-01T17:38:39.595Z,102016.34
2022-09-01T17:41:23.159Z,102016.88
2022-09-01T17:44:07.114Z,102021.13
2022-09-01T17:46:45.326Z,102016.19
2022-09-01T17:49:22.597Z,102014.22
2022-09-01T17:52:01.627Z,102013.59
2022-09-01T17:54:40.563Z,102015.72
2022-09-01T17:57:18.307Z,102017.13
2022-09-01T17:59:54.532Z,102010.53
2022-09-01T18:02:58.940Z,102011.75
2022-09-01T18:05:28.514Z,102019.63
2022-09-01T18:08:14.732Z,102021.97
2022-09-01T18:10:50.848Z,102018.50
2022-09-01T18:13:49.140Z,102034.44
2022-09-01T18:16:17.104Z,102025.53
2022-09-01T18:18:49.620Z,102026.81
2022-09-01T18:21:21.282Z,102022.75
2022-09-01T18:23:54.042Z,102034.66
2022-09-01T18:26:29.603Z,102031.25
2022-09-01T18:28:58.329Z,102028.59
2022-09-01T18:32:22.659Z,102040.50
2022-09-01T18:35:09.181Z,102043.97
2022-09-01T18:37:50.593Z,102051.81
2022-09-01T18:40:27.227Z,102048.78
2022-09-01T18:43:03.968Z,102042.28
2022-09-01T18:45:40.676Z,102052.63
2022-09-01T18:48:25.918Z,102054.84
2022-09-01T18:51:05.135Z,102046.41
2022-09-01T18:53:43.356Z,102059.19
2022-09-01T18:56:23.255Z,102054.28
2022-09-01T18:59:06.792Z,102062.56
2022-09-01T19:01:40.917Z,102059.34
2022-09-01T19:04:22.351Z,102060.50
2022-09-01T19:07:05.167Z,102060.75
2022-09-01T19:09:37.703Z,102056.53
2022-09-01T19:12:18.691Z,102057.72
2022-09-01T19:14:57.887Z,102064.09
2022-09-01T19:18:01.841Z,102056.41
2022-09-01T19:20:42.716Z,102062.81
2022-09-01T19:23:20.391Z,102060.28
2022-09-01T19:25:49.730Z,102058.66
2022-09-01T19:28:25.192Z,102061.47
2022-09-01T19:31:02.627Z,102060.72
2022-09-01T19:33:37.968Z,102065.25
2022-09-01T19:36:10.905Z,102071.59
2022-09-01T19:38:40.745Z,102062.91
2022-09-01T19:41:16.426Z,102072.78
2022-09-01T19:43:48.162Z,102074.59
2022-09-01T19:46:27.174Z,102069.41
2022-09-01T19:49:04.567Z,102073.09
2022-09-01T19:51:43.006Z,102080.28
2022-09-01T19:54:22.955Z,102081.25
2022-09-01T19:56:58.965Z,102084.88
2022-09-01T19:59:37.068Z,102073.44
2022-09-01T20:02:14.065Z,102072.66
2022-09-01T20:04:53.920Z,102075.38
2022-09-01T20:07:32.765Z,102080.78
2022-09-01T20:10:17.838Z,102083.53
2022-09-01T20:12:58.080Z,102080.06
2022-09-01T20:15:36.517Z,102082.81
2022-09-01T20:18:11.571Z,102085.50
2022-09-01T20:20:45.984Z,102086.50
2022-09-01T20:23:24.911Z,102086.56
2022-09-01T20:26:05.669Z,102084.88
2022-09-01T20:28:47.256Z,102089.38
2022-09-01T20:31:23.009Z,102096.50
2022-09-01T20:33:57.148Z,102089.50
2022-09-01T20:36:33.331Z,102091.31
2022-09-01T20:39:26.425Z,102095.75
2022-09-01T20:42:03.060Z,102084.31
2022-09-01T20:44:39.711Z,102091.47
2022-09-01T20:47:08.359Z,102083.56
2022-09-01T20:49:39.268Z,102089.78
2022-09-01T20:52:16.922Z,102090.75
2022-09-01T20:54:53.445Z,102092.53
2022-09-01T20:57:37.926Z,102093.47
2022-09-01T21:00:10.704Z,102097.00
2022-09-01T21:02:52.757Z,102095.28
2022-09-01T21:05:34.067Z,102100.63
2022-09-01T21:08:28.369Z,102098.88
2022-09-01T21:11:13.057Z,102096.28
2022-09-01T21:13:59.599Z,102093.66
2022-09-01T21:16:38.557Z,102087.47
2022-09-01T21:19:14.422Z,102084.00
2022-09-01T21:21:54.415Z,102086.69
2022-09-01T21:24:22.842Z,102088.50
2022-09-01T21:26:52.115Z,102087.63
2022-09-01T21:29:35.065Z,102085.03
2022-09-01T21:32:03.638Z,102083.28
2022-09-01T21:34:31.722Z,102085.94
2022-09-01T21:37:00.657Z,102090.41
2022-09-01T21:39:28.865Z,102082.47
2022-09-01T21:41:58.044Z,102083.38
2022-09-01T21:44:28.812Z,102079.84
2022-09-01T21:46:57.810Z,102076.34
2022-09-01T21:49:26.299Z,102079.03
2022-09-01T21:51:57.193Z,102080.81
2022-09-01T21:54:25.392Z,102078.19
2022-09-01T21:56:54.393Z,102077.31
2022-09-01T21:59:22.526Z,102079.09
2022-09-01T22:01:52.600Z,102076.47
2022-09-01T22:04:24.329Z,102077.38
2022-09-01T22:06:53.152Z,102085.34
2022-09-01T22:09:23.153Z,102089.78
2022-09-01T22:11:52.658Z,102090.66
2022-09-01T22:14:21.856Z,102087.16
2022-09-01T22:16:51.763Z,102096.91
2022-09-01T22:19:20.142Z,102100.41
2022-09-01T22:21:48.957Z,102092.50
2022-09-01T22:24:19.421Z,102089.84
2022-09-01T22:26:48.357Z,102091.66
2022-09-01T22:29:17.482Z,102094.31
2022-09-01T22:31:46.060Z,102087.25
2022-09-01T22:34:15.577Z,102093.44
2022-09-01T22:36:47.009Z,102089.94
2022-09-01T22:39:17.079Z,102091.75
2022-09-01T22:41:45.416Z,102089.94
2022-09-01T22:44:13.790Z,102095.22
2022-09-01T22:46:42.348Z,102092.59
2022-09-01T22:49:10.950Z,102088.22
2022-09-01T22:51:42.533Z,102088.22
2022-09-01T22:54:11.982Z,102087.34
2022-09-01T22:56:42.813Z,102078.50
2022-09-01T22:59:14.836Z,102084.69
2022-09-01T23:01:47.628Z,102079.41
2022-09-01T23:04:17.514Z,102071.47
2022-09-01T23:06:50.130Z,102068.81
2022-09-01T23:09:19.630Z,102070.63
2022-09-01T23:11:49.090Z,102067.97
2022-09-01T23:14:18.475Z,102065.31
2022-09-01T23:16:47.324Z,102064.44
2022-09-01T23:19:20.217Z,102067.09
2022-09-01T23:21:51.069Z,102065.31
2022-09-01T23:24:19.961Z,102053.88
2022-09-01T23:26:49.044Z,102059.16
2022-09-01T23:29:18.064Z,102058.31
2022-09-01T23:31:46.352Z,102062.69
2022-09-01T23:34:16.891Z,102048.63
2022-09-01T23:36:45.504Z,102053.03
2022-09-01T23:39:15.239Z,102055.66
2022-09-01T23:41:43.489Z,102052.16
2022-09-01T23:44:13.354Z,102048.63
2022-09-01T23:46:44.811Z,102044.22
2022-09-01T23:49:16.084Z,102045.06
2022-09-01T23:51:45.577Z,102037.16
2022-09-01T23:54:16.221Z,102040.66
2022-09-01T23:56:44.324Z,102036.25
2022-09-01T23:59:12.677Z,102036.25
